Terminal Aerodrome Forecast
Issued by NWS Billings, MT

Home | Current Version | Previous Version | Text Only | Print | Product List | Glossary On
Versions: 1 2 3 4 5 6 7 8 9 10 11 12 13 14 15 16 17 18 19 20 21 22 23 24
000
FTUS45 KBYZ 222338
TAFBIL
TAF
KBIL 222338Z 2300/2324 25008KT P6SM VCSH FEW100 BKN140
     FM230300 27007KT P6SM SCT100
     FM230600 25006KT P6SM SKC
     FM231200 24012KT P6SM SKC=

USA.gov is the U.S. government's official web portal to all federal, state and local government web resources and services.